Time;durP1;ratioP1;P1;durP2;ratioP2;P2;SDS_P1;SDS_P2;PMS_P1;PMS_P2;Temp;Humidity;BMP_temperature;BMP_pressure;BME280_temperature;BME280_humidity;BME280_pressure;Samples;Min_cycle;Max_cycle;Signal;HPM_P1;HPM_P2
2021/04/20 00:00:19;;;;;;;27.63;14.50;;;;;;;4.28;100.00;100915.66;4987746;28;20193;-72
2021/04/20 00:02:55;;;;;;;25.13;14.67;;;;;;;4.26;100.00;100916.50;4980118;28;20213;-75
2021/04/20 00:05:41;;;;;;;24.90;14.20;;;;;;;4.25;100.00;100915.63;4984048;28;20300;-72
2021/04/20 00:08:08;;;;;;;27.13;15.27;;;;;;;4.23;100.00;100913.91;4987680;28;20208;-72
2021/04/20 00:10:53;;;;;;;22.83;13.63;;;;;;;4.21;100.00;100908.75;4987441;28;20233;-75
2021/04/20 00:13:40;;;;;;;29.87;14.73;;;;;;;4.19;100.00;100902.72;4988009;28;20331;-75
2021/04/20 00:16:26;;;;;;;21.30;12.57;;;;;;;4.13;100.00;100900.97;4988090;28;20598;-75
2021/04/20 00:19:12;;;;;;;22.07;12.03;;;;;;;4.11;100.00;100891.47;4986004;28;20378;-73
2021/04/20 00:21:48;;;;;;;22.27;13.10;;;;;;;4.06;100.00;100891.44;4988824;28;20236;-75
2021/04/20 00:24:34;;;;;;;21.30;12.10;;;;;;;4.03;100.00;100887.97;4988427;28;20221;-77
2021/04/20 00:27:16;;;;;;;19.40;12.40;;;;;;;3.95;100.00;100885.38;4988229;28;20204;-75
2021/04/20 00:29:49;;;;;;;19.50;11.77;;;;;;;3.90;100.00;100885.34;4986867;28;20308;-73
2021/04/20 00:32:16;;;;;;;18.77;11.57;;;;;;;3.90;100.00;100892.22;4987733;28;20955;-72
2021/04/20 00:34:50;;;;;;;21.67;10.33;;;;;;;3.92;100.00;100881.09;4987317;28;20250;-75
2021/04/20 00:37:34;;;;;;;16.43;11.27;;;;;;;3.88;100.00;100875.88;4987381;28;20731;-73
2021/04/20 00:40:16;;;;;;;17.77;10.47;;;;;;;3.78;100.00;100875.84;4994020;28;20559;-72
2021/04/20 00:43:03;;;;;;;17.17;10.40;;;;;;;3.77;100.00;100881.00;4987819;28;20265;-75
2021/04/20 00:45:37;;;;;;;15.07;10.63;;;;;;;3.73;100.00;100877.53;4987675;28;20256;-75
2021/04/20 00:48:10;;;;;;;16.00;11.00;;;;;;;3.75;100.00;100869.81;4983689;28;20197;-76
2021/04/20 00:50:56;;;;;;;14.93;10.30;;;;;;;3.72;100.00;100875.78;4980592;28;20228;-73
2021/04/20 00:53:32;;;;;;;14.67;10.40;;;;;;;3.70;100.00;100876.66;4986571;28;20337;-73
2021/04/20 00:56:19;;;;;;;18.40;10.30;;;;;;;3.70;100.00;100871.50;4986234;28;20637;-73
2021/04/20 00:59:02;;;;;;;15.50;10.60;;;;;;;3.69;100.00;100868.03;4981926;28;20712;-72
2021/04/20 01:01:28;;;;;;;16.77;11.43;;;;;;;3.72;100.00;100873.22;4987334;28;20208;-72
2021/04/20 01:04:16;;;;;;;16.50;11.10;;;;;;;3.68;100.00;100881.78;4983592;28;20713;-72
2021/04/20 01:07:02;;;;;;;15.30;9.77;;;;;;;3.66;100.00;100883.50;4979676;28;20651;-72
2021/04/20 01:09:49;;;;;;;16.27;11.27;;;;;;;3.63;100.00;100870.59;4989768;28;20266;-72
2021/04/20 01:12:16;;;;;;;15.83;10.93;;;;;;;3.64;100.00;100867.16;4988339;28;20259;-72
2021/04/20 01:14:46;;;;;;;18.43;11.73;;;;;;;3.61;100.00;100864.56;4987092;28;20243;-76
2021/04/20 01:17:25;;;;;;;15.67;10.67;;;;;;;3.60;100.00;100866.25;4987456;28;20192;-74
2021/04/20 01:20:05;;;;;;;17.00;10.47;;;;;;;3.57;100.00;100860.22;4992445;28;20216;-71
2021/04/20 01:26:46;;;;;;;15.60;10.20;;;;;;;3.52;100.00;100859.34;4993226;28;20227;-75
2021/04/20 01:29:33;;;;;;;14.47;9.93;;;;;;;3.45;100.00;100865.28;4990779;28;20291;-75
2021/04/20 01:32:09;;;;;;;16.97;10.70;;;;;;;3.40;100.00;100860.97;4985313;28;20204;-74
2021/04/20 01:34:56;;;;;;;15.80;10.03;;;;;;;3.40;100.00;100867.84;4991995;28;20221;-73
2021/04/20 01:37:32;;;;;;;17.73;11.40;;;;;;;3.42;100.00;100867.00;4990783;28;20247;-73
2021/04/20 01:40:00;;;;;;;17.37;11.03;;;;;;;3.36;100.00;100855.78;4991236;28;20300;-74
2021/04/20 01:42:37;;;;;;;16.30;10.50;;;;;;;3.32;100.00;100862.63;4991721;28;20200;-74
2021/04/20 01:45:24;;;;;;;15.33;10.00;;;;;;;3.36;100.00;100859.25;4990636;28;20333;-72
2021/04/20 01:48:00;;;;;;;15.03;9.70;;;;;;;3.32;100.00;100852.31;4986367;28;20197;-76
2021/04/20 01:50:46;;;;;;;15.53;10.43;;;;;;;3.29;100.00;100849.75;4988903;28;20312;-72
2021/04/20 01:53:33;;;;;;;18.33;11.03;;;;;;;3.32;100.00;100854.88;4987970;28;20232;-71
2021/04/20 01:56:10;;;;;;;16.47;10.83;;;;;;;3.35;100.00;100844.63;4984116;28;20181;-75
2021/04/20 01:58:59;;;;;;;15.73;10.40;;;;;;;3.36;100.00;100848.94;4990119;28;20193;-74
2021/04/20 02:01:28;;;;;;;14.93;10.47;;;;;;;3.40;100.00;100855.81;4989973;28;20205;-73
2021/04/20 02:04:04;;;;;;;15.93;10.83;;;;;;;3.43;100.00;100855.00;4984520;28;20801;-72
2021/04/20 02:06:42;;;;;;;15.53;10.50;;;;;;;3.43;100.00;100855.00;4990178;28;20561;-73
2021/04/20 02:09:18;;;;;;;17.13;11.43;;;;;;;3.47;100.00;100858.47;4991689;28;20728;-71
2021/04/20 02:11:52;;;;;;;16.47;10.37;;;;;;;3.51;100.00;100860.19;4989557;28;20716;-73
2021/04/20 02:14:29;;;;;;;21.57;11.10;;;;;;;3.53;100.00;100850.75;4986610;28;20226;-73
2021/04/20 02:17:02;;;;;;;17.20;10.60;;;;;;;3.53;100.00;100849.03;4981399;28;20194;-74
2021/04/20 02:19:30;;;;;;;18.63;11.33;;;;;;;3.55;100.00;100860.22;4990385;28;20285;-72
2021/04/20 02:22:16;;;;;;;16.00;10.90;;;;;;;3.58;100.00;100857.66;4985436;28;20682;-75
2021/04/20 02:24:43;;;;;;;18.40;12.07;;;;;;;3.62;100.00;100855.94;4991326;28;20275;-73
2021/04/20 02:27:11;;;;;;;19.10;12.00;;;;;;;3.63;100.00;100854.25;4989632;28;20241;-75
2021/04/20 02:29:40;;;;;;;16.40;11.47;;;;;;;3.64;100.00;100862.00;4988926;28;20198;-76
2021/04/20 02:32:17;;;;;;;16.60;12.03;;;;;;;3.68;100.00;100853.44;4989430;28;20205;-73
2021/04/20 02:34:53;;;;;;;17.80;11.67;;;;;;;3.71;100.00;100856.03;4994592;28;20223;-72
2021/04/20 02:37:40;;;;;;;20.83;12.17;;;;;;;3.76;100.00;100853.47;4989503;28;20304;-72
2021/04/20 02:40:31;;;;;;;17.63;11.50;;;;;;;3.78;100.00;100855.22;4986888;28;20208;-74
2021/04/20 02:43:13;;;;;;;20.80;11.90;;;;;;;3.81;100.00;100845.75;4989857;28;20229;-77
2021/04/20 02:45:52;;;;;;;16.77;11.63;;;;;;;3.86;100.00;100854.38;4989550;28;20531;-75
2021/04/20 02:48:22;;;;;;;18.43;11.77;;;;;;;3.88;100.00;100858.69;4989846;28;20224;-71
2021/04/20 02:50:48;;;;;;;18.03;11.90;;;;;;;3.91;100.00;100850.09;4994154;28;20221;-72
2021/04/20 02:53:17;;;;;;;21.90;12.20;;;;;;;3.93;100.00;100856.13;4989532;28;20222;-72
2021/04/20 02:55:45;;;;;;;17.70;12.03;;;;;;;3.96;100.00;100857.00;4990744;28;20288;-71
2021/04/20 02:58:15;;;;;;;26.20;13.20;;;;;;;3.99;100.00;100858.72;4988874;28;20296;-73
2021/04/20 03:00:55;;;;;;;24.13;13.63;;;;;;;4.05;100.00;100852.75;4988417;28;20185;-72
2021/04/20 03:03:29;;;;;;;22.77;13.20;;;;;;;4.08;100.00;100857.91;4991617;28;20236;-74
2021/04/20 03:06:06;;;;;;;21.23;12.57;;;;;;;4.12;100.00;100870.84;4989824;28;20220;-72
2021/04/20 03:08:42;;;;;;;21.47;13.93;;;;;;;4.16;100.00;100859.66;4989113;28;20201;-74
2021/04/20 03:11:23;;;;;;;30.43;15.03;;;;;;;4.21;100.00;100864.00;4990091;28;20777;-71
2021/04/20 03:13:59;;;;;;;30.50;16.63;;;;;;;4.21;100.00;100857.13;4988416;28;20301;-75
2021/04/20 03:16:31;;;;;;;26.20;14.60;;;;;;;4.25;100.00;100865.72;4984788;28;20220;-77
2021/04/20 03:19:17;;;;;;;34.93;17.80;;;;;;;4.26;100.00;100859.72;4998328;28;20209;-74
2021/04/20 03:21:50;;;;;;;32.40;16.57;;;;;;;4.29;100.00;100864.88;4988956;28;20295;-75
2021/04/20 03:25:01;;;;;;;29.43;17.27;;;;;;;4.30;100.00;100864.03;4990321;28;20220;-73
2021/04/20 03:27:34;;;;;;;33.90;16.30;;;;;;;4.33;100.00;100870.06;4985045;28;20201;-72
2021/04/20 03:30:07;;;;;;;29.97;15.53;;;;;;;4.36;100.00;100870.09;4986673;28;20287;-75
2021/04/20 03:32:34;;;;;;;44.23;17.17;;;;;;;4.40;100.00;100867.47;4988459;28;20703;-72
2021/04/20 03:35:09;;;;;;;33.13;16.90;;;;;;;4.41;100.00;100864.91;4988004;28;20197;-72
2021/04/20 03:37:49;;;;;;;32.73;15.97;;;;;;;4.42;100.00;100861.50;4988411;28;20225;-76
2021/04/20 03:40:35;;;;;;;34.03;15.93;;;;;;;4.44;100.00;100862.34;4988703;28;20199;-75
2021/04/20 03:43:27;;;;;;;31.40;15.73;;;;;;;4.45;100.00;100861.50;4991820;28;20251;-73
2021/04/20 03:46:18;;;;;;;28.07;15.17;;;;;;;4.47;100.00;100866.69;4991660;28;20267;-72
2021/04/20 03:49:04;;;;;;;31.37;15.60;;;;;;;4.50;100.00;100864.06;4987882;28;20205;-75
2021/04/20 03:51:44;;;;;;;30.03;15.40;;;;;;;4.51;100.00;100865.81;4990165;28;20292;-73
2021/04/20 03:54:33;;;;;;;31.83;16.83;;;;;;;4.52;100.00;100862.34;4987799;28;20225;-75
2021/04/20 03:57:10;;;;;;;41.37;18.07;;;;;;;4.52;100.00;100862.34;4982455;28;20228;-75
2021/04/20 03:59:44;;;;;;;47.40;22.67;;;;;;;4.49;100.00;100859.78;4987002;28;20211;-72
2021/04/20 04:02:18;;;;;;;30.37;18.13;;;;;;;4.49;100.00;100865.81;4987536;28;20197;-73
2021/04/20 04:04:48;;;;;;;27.97;16.27;;;;;;;4.48;100.00;100856.31;4987558;28;20225;-72
2021/04/20 04:07:18;;;;;;;25.53;14.90;;;;;;;4.46;100.00;100855.47;4987210;28;20205;-72
2021/04/20 04:10:06;;;;;;;30.03;15.40;;;;;;;4.46;100.00;100854.59;4989343;28;20574;-72
2021/04/20 04:12:40;;;;;;;27.30;15.47;;;;;;;4.43;100.00;100847.69;4990278;28;20570;-71
2021/04/20 04:15:10;;;;;;;30.10;15.67;;;;;;;4.43;100.00;100849.44;4988344;28;20681;-73
2021/04/20 04:17:47;;;;;;;27.97;14.97;;;;;;;4.40;100.00;100845.13;4987681;28;20201;-72
2021/04/20 04:20:24;;;;;;;25.73;14.37;;;;;;;4.41;100.00;100851.16;4987801;28;20618;-72
2021/04/20 04:22:56;;;;;;;27.47;13.80;;;;;;;4.39;100.00;100847.72;4986361;28;20194;-77
2021/04/20 04:25:33;;;;;;;24.87;14.53;;;;;;;4.33;100.00;100851.13;4985348;28;20195;-72
2021/04/20 04:28:15;;;;;;;24.50;14.83;;;;;;;4.29;100.00;100850.28;4983084;28;20446;-73
2021/04/20 04:30:56;;;;;;;24.73;15.07;;;;;;;4.28;100.00;100847.69;4987607;28;20225;-73
2021/04/20 04:33:34;;;;;;;26.20;14.57;;;;;;;4.25;100.00;100851.09;4987256;28;20225;-72
2021/04/20 04:36:10;;;;;;;22.77;13.27;;;;;;;4.28;100.00;100853.69;4988905;28;20189;-73
2021/04/20 04:38:53;;;;;;;22.33;13.67;;;;;;;4.30;100.00;100857.13;4989812;28;20217;-74
2021/04/20 04:41:39;;;;;;;25.43;15.03;;;;;;;4.38;100.00;100867.50;4988397;28;20292;-75
2021/04/20 04:44:11;;;;;;;21.80;13.47;;;;;;;4.44;100.00;100866.66;4986857;28;20229;-72
2021/04/20 04:46:41;;;;;;;27.53;14.53;;;;;;;4.45;100.00;100866.66;4994434;28;20202;-72
2021/04/20 04:49:08;;;;;;;23.07;13.60;;;;;;;4.46;100.00;100870.97;4987310;28;20879;-74
2021/04/20 04:51:40;;;;;;;27.27;15.47;;;;;;;4.51;100.00;100869.25;4987267;28;20805;-73
2021/04/20 04:54:19;;;;;;;28.60;15.77;;;;;;;4.56;100.00;100866.69;4982585;28;20586;-74
2021/04/20 04:57:09;;;;;;;24.30;14.90;;;;;;;4.61;100.00;100872.72;4986406;28;20212;-74
2021/04/20 04:59:45;;;;;;;24.13;14.00;;;;;;;4.66;100.00;100873.59;4985361;28;20937;-72
2021/04/20 05:02:33;;;;;;;23.73;14.10;;;;;;;4.70;100.00;100865.00;4983613;28;20208;-75
2021/04/20 05:05:04;;;;;;;24.67;13.30;;;;;;;4.77;100.00;100867.56;4986569;28;20251;-71
2021/04/20 05:07:32;;;;;;;22.70;13.80;;;;;;;4.82;100.00;100874.50;4983328;28;20538;-72
2021/04/20 05:10:03;;;;;;;20.70;13.77;;;;;;;4.85;100.00;100869.31;4988994;28;20222;-71
2021/04/20 05:12:50;;;;;;;21.70;12.87;;;;;;;4.94;100.00;100878.78;4986070;28;20373;-75
2021/04/20 05:15:26;;;;;;;24.30;13.37;;;;;;;4.99;100.00;100873.63;4983870;28;20197;-74
2021/04/20 05:18:01;;;;;;;20.20;13.43;;;;;;;5.04;100.00;100871.94;4994205;28;20974;-75
2021/04/20 05:20:47;;;;;;;25.17;12.97;;;;;;;5.10;100.00;100875.38;4991393;28;20663;-71
2021/04/20 05:23:25;;;;;;;24.47;13.60;;;;;;;5.16;100.00;100868.50;4987299;28;20473;-72
2021/04/20 05:26:10;;;;;;;23.20;13.67;;;;;;;5.23;100.00;100863.31;4979209;28;20205;-74
2021/04/20 05:28:58;;;;;;;23.10;13.63;;;;;;;5.29;100.00;100871.06;4986284;28;20713;-73
2021/04/20 05:31:44;;;;;;;21.83;13.03;;;;;;;5.42;100.00;100868.47;4987416;28;20271;-72
2021/04/20 05:34:21;;;;;;;20.57;13.00;;;;;;;5.54;100.00;100865.00;4988085;28;20703;-74
2021/04/20 05:37:07;;;;;;;25.63;13.20;;;;;;;5.60;100.00;100868.44;4987055;28;20745;-73
2021/04/20 05:39:49;;;;;;;20.83;13.10;;;;;;;5.78;100.00;100870.13;4988962;28;20373;-75
2021/04/20 05:42:22;;;;;;;20.57;14.63;;;;;;;5.93;100.00;100876.13;4984259;28;20205;-76
2021/04/20 05:44:57;;;;;;;24.60;14.00;;;;;;;6.09;100.00;100877.00;4986401;28;20216;-72
2021/04/20 05:47:28;;;;;;;22.70;15.50;;;;;;;6.21;100.00;100884.72;4984063;28;20701;-72
2021/04/20 05:49:58;;;;;;;22.27;15.50;;;;;;;6.30;100.00;100884.66;4987629;28;20201;-71
2021/04/20 05:52:27;;;;;;;25.40;15.17;;;;;;;6.32;100.00;100888.09;4986729;28;20303;-73
2021/04/20 05:54:59;;;;;;;24.97;14.23;;;;;;;6.37;100.00;100888.94;4986620;28;20209;-75
2021/04/20 05:57:26;;;;;;;22.13;15.50;;;;;;;6.45;100.00;100878.53;4986164;28;20229;-74
2021/04/20 06:00:14;;;;;;;22.93;14.57;;;;;;;6.51;100.00;100882.81;4980652;28;20571;-76
2021/04/20 06:02:42;;;;;;;29.07;15.30;;;;;;;6.57;100.00;100881.06;4981676;28;20278;-71
2021/04/20 06:05:21;;;;;;;22.30;14.70;;;;;;;6.68;100.00;100883.59;4991621;28;20190;-72
2021/04/20 06:07:54;;;;;;;27.50;14.93;;;;;;;6.82;100.00;100889.56;4989213;28;20284;-75
2021/04/20 06:10:41;;;;;;;24.23;15.13;;;;;;;6.94;100.00;100886.00;4990598;28;20237;-76
2021/04/20 06:13:27;;;;;;;24.20;16.03;;;;;;;7.03;100.00;100882.50;4993631;28;20314;-74
2021/04/20 06:15:56;;;;;;;22.80;16.50;;;;;;;7.05;100.00;100885.94;4986961;28;20204;-74
2021/04/20 06:18:42;;;;;;;20.70;15.07;;;;;;;7.16;100.00;100885.88;4991652;28;20742;-76
2021/04/20 06:21:18;;;;;;;22.60;15.97;;;;;;;7.19;100.00;100888.41;4990063;28;20258;-73
2021/04/20 06:23:47;;;;;;;28.57;16.83;;;;;;;7.35;100.00;100887.44;4990346;28;20595;-74
2021/04/20 06:26:16;;;;;;;24.73;16.00;;;;;;;7.48;100.00;100885.59;4987705;28;20627;-75
2021/04/20 06:28:49;;;;;;;22.83;15.33;;;;;;;7.50;100.00;100886.44;4988221;28;20197;-73
2021/04/20 06:31:26;;;;;;;21.47;15.93;;;;;;;7.62;100.00;100882.00;4990917;28;20256;-75
2021/04/20 06:34:12;;;;;;;23.67;16.20;;;;;;;7.68;100.00;100894.91;4983494;28;20236;-73
2021/04/20 06:36:44;;;;;;;23.93;15.53;;;;;;;7.66;100.00;100884.53;4996020;28;20193;-73
2021/04/20 06:39:20;;;;;;;27.93;16.27;;;;;;;7.65;100.00;100889.75;4993480;28;20297;-76
2021/04/20 06:41:56;;;;;;;22.33;15.47;;;;;;;7.67;100.00;100896.66;4989704;28;20190;-73
2021/04/20 06:44:36;;;;;;;20.63;14.47;;;;;;;7.71;100.00;100900.94;4986329;28;20220;-74
2021/04/20 06:47:14;;;;;;;21.73;14.77;;;;;;;7.59;100.00;100893.28;4984176;28;20196;-72
2021/04/20 06:49:44;;;;;;;20.50;14.97;;;;;;;7.67;100.00;100895.78;4988028;28;20219;-73
2021/04/20 06:52:18;;;;;;;22.90;15.33;;;;;;;7.73;100.00;100891.41;4989174;28;20319;-72
2021/04/20 06:54:52;;;;;;;19.77;14.97;;;;;;;7.78;100.00;100902.59;4987083;28;20237;-72
2021/04/20 06:57:36;;;;;;;19.37;14.77;;;;;;;7.83;100.00;100893.88;4987838;28;20199;-76
2021/04/20 07:00:16;;;;;;;20.77;14.17;;;;;;;7.80;100.00;100902.59;4988981;28;20203;-72
2021/04/20 07:02:54;;;;;;;26.47;15.80;;;;;;;7.75;100.00;100900.03;4988894;28;20273;-74
2021/04/20 07:05:29;;;;;;;20.93;15.07;;;;;;;7.73;100.00;100894.00;4987973;28;20257;-73
2021/04/20 07:08:06;;;;;;;31.90;21.30;;;;;;;7.72;100.00;100891.41;4987593;28;20204;-73
2021/04/20 07:10:54;;;;;;;30.53;18.67;;;;;;;7.72;100.00;100894.88;4987366;28;20603;-74
2021/04/20 07:13:45;;;;;;;23.17;15.70;;;;;;;7.68;100.00;100893.16;4986842;28;20298;-75
2021/04/20 07:16:40;;;;;;;21.70;14.33;;;;;;;7.77;100.00;100882.72;4988433;28;20222;-73
2021/04/20 07:19:25;;;;;;;23.13;15.07;;;;;;;7.79;100.00;100895.66;4988517;28;20196;-72
2021/04/20 07:22:24;;;;;;;19.90;13.77;;;;;;;7.66;100.00;100884.53;4985936;28;20216;-73
2021/04/20 07:25:20;;;;;;;20.80;13.27;;;;;;;7.69;100.00;100888.88;4987426;28;20812;-73
2021/04/20 07:28:17;;;;;;;20.97;14.20;;;;;;;7.78;100.00;100887.03;4988090;28;20283;-76
2021/04/20 07:31:08;;;;;;;21.33;14.23;;;;;;;7.86;100.00;100876.56;4986244;28;20203;-75
2021/04/20 07:34:09;;;;;;;19.80;14.60;;;;;;;7.88;100.00;100880.00;4991661;28;20234;-73
2021/04/20 07:37:23;;;;;;;22.83;15.57;;;;;;;7.97;100.00;100874.69;4990779;28;20204;-74
2021/04/20 07:39:57;;;;;;;20.20;15.00;;;;;;;8.07;100.00;100883.25;4991213;28;20212;-74
2021/04/20 07:42:32;;;;;;;24.43;14.97;;;;;;;7.97;100.00;100881.63;4988485;28;20295;-74
2021/04/20 07:45:24;;;;;;;25.67;14.97;;;;;;;7.92;100.00;100886.03;4987013;28;20208;-74
2021/04/20 07:48:10;;;;;;;24.03;15.50;;;;;;;7.89;100.00;100875.66;4988293;28;20747;-74
2021/04/20 07:51:00;;;;;;;19.43;14.33;;;;;;;7.96;100.00;100879.91;4985537;28;20215;-75
2021/04/20 07:53:43;;;;;;;20.67;14.83;;;;;;;8.02;100.00;100881.56;4998177;28;20301;-75
2021/04/20 07:56:34;;;;;;;23.03;15.17;;;;;;;8.16;100.00;100884.84;4987360;28;20754;-73
2021/04/20 07:59:16;;;;;;;22.47;16.40;;;;;;;8.40;100.00;100882.84;4988366;28;20212;-73
2021/04/20 08:01:55;;;;;;;22.53;16.37;;;;;;;8.64;100.00;100881.69;4984478;28;20188;-73
2021/04/20 08:04:46;;;;;;;21.87;15.80;;;;;;;8.85;100.00;100880.53;4987302;28;20578;-76
2021/04/20 08:07:40;;;;;;;25.83;17.20;;;;;;;8.89;100.00;100880.44;4985504;28;20256;-75
2021/04/20 08:10:16;;;;;;;24.00;16.30;;;;;;;8.88;100.00;100886.53;4987930;28;20189;-75
2021/04/20 08:13:13;;;;;;;23.67;16.67;;;;;;;8.81;100.00;100884.03;4986673;28;20738;-75
2021/04/20 08:15:46;;;;;;;24.13;15.67;;;;;;;8.77;100.00;100872.81;4986362;28;20206;-75
2021/04/20 08:18:37;;;;;;;24.33;16.73;;;;;;;8.78;100.00;100877.16;4987290;28;20213;-72
2021/04/20 08:21:25;;;;;;;22.23;15.87;;;;;;;8.84;100.00;100878.81;4983956;28;20263;-73
2021/04/20 08:24:16;;;;;;;22.33;15.93;;;;;;;9.00;100.00;100885.47;4985370;28;20283;-73
2021/04/20 08:26:57;;;;;;;22.87;15.37;;;;;;;9.16;100.00;100882.66;4986525;28;20311;-75
2021/04/20 08:29:39;;;;;;;22.63;16.57;;;;;;;9.20;100.00;100882.56;4983920;28;20217;-77
2021/04/20 08:32:28;;;;;;;25.20;16.30;;;;;;;9.35;100.00;100881.44;4987606;28;20272;-74
2021/04/20 08:35:11;;;;;;;21.07;15.80;;;;;;;9.44;100.00;100883.03;4984670;28;20190;-72
2021/04/20 08:38:00;;;;;;;22.57;16.57;;;;;;;9.52;100.00;100875.97;4986024;28;20192;-74
2021/04/20 08:40:44;;;;;;;22.43;16.53;;;;;;;9.60;100.00;100871.50;4983803;28;20637;-72
2021/04/20 08:43:25;;;;;;;23.33;17.17;;;;;;;9.61;100.00;100873.19;4984494;28;20233;-75
2021/04/20 08:46:22;;;;;;;19.27;14.57;;;;;;;9.70;100.00;100879.13;4983166;28;20217;-75
2021/04/20 08:49:04;;;;;;;21.70;15.60;;;;;;;9.72;100.00;100874.75;4986273;28;20187;-73
2021/04/20 08:51:54;;;;;;;20.07;15.40;;;;;;;9.89;100.00;100870.06;4985683;28;20315;-73
2021/04/20 08:54:46;;;;;;;19.33;15.27;;;;;;;10.10;100.00;100875.75;4985178;28;20233;-72
2021/04/20 08:57:49;;;;;;;17.83;13.90;;;;;;;10.16;100.00;100879.06;4985668;28;20202;-72
2021/04/20 09:00:42;;;;;;;18.67;14.47;;;;;;;10.20;100.00;100872.94;4985714;28;20209;-74
2021/04/20 09:03:26;;;;;;;18.30;13.80;;;;;;;10.42;100.00;100875.09;4980441;28;20452;-75
2021/04/20 09:06:07;;;;;;;18.40;14.23;;;;;;;10.38;100.00;100871.72;4985885;28;20196;-74
2021/04/20 09:08:59;;;;;;;16.23;13.03;;;;;;;10.55;100.00;100879.19;4985298;28;20231;-73
2021/04/20 09:11:48;;;;;;;16.70;13.10;;;;;;;10.79;100.00;100875.13;4985323;28;20285;-74
2021/04/20 09:14:27;;;;;;;20.63;13.87;;;;;;;11.07;100.00;100871.88;4984060;28;20220;-77
2021/04/20 09:17:07;;;;;;;25.17;18.47;;;;;;;11.35;99.27;100864.22;4983068;28;20673;-75
2021/04/20 09:19:46;;;;;;;20.17;15.50;;;;;;;11.49;98.64;100860.41;4983842;28;20196;-73
2021/04/20 09:22:44;;;;;;;19.63;14.27;;;;;;;11.59;95.86;100863.63;4984052;28;20296;-73
2021/04/20 09:25:24;;;;;;;17.50;14.20;;;;;;;11.68;95.55;100859.03;4983681;28;20548;-76
2021/04/20 09:28:15;;;;;;;16.40;13.03;;;;;;;11.72;94.76;100868.47;4985804;28;20222;-72
2021/04/20 09:30:44;;;;;;;22.63;15.00;;;;;;;11.84;93.80;100863.84;4986532;28;20281;-73
2021/04/20 09:33:37;;;;;;;19.03;13.63;;;;;;;12.05;92.50;100867.66;4983034;28;20224;-74
2021/04/20 09:36:11;;;;;;;21.80;15.43;;;;;;;12.39;95.31;100861.44;4985269;28;20201;-74
2021/04/20 09:38:50;;;;;;;25.83;17.70;;;;;;;12.18;91.21;100876.81;4983825;28;20824;-76
2021/04/20 09:41:23;;;;;;;23.73;16.97;;;;;;;11.98;89.88;100880.03;4987264;28;20670;-74
2021/04/20 09:44:17;;;;;;;21.20;15.50;;;;;;;12.11;94.54;100870.06;4986909;28;20302;-73
2021/04/20 09:47:19;;;;;;;27.87;19.47;;;;;;;12.24;91.28;100867.94;4991175;28;20847;-73
2021/04/20 09:50:15;;;;;;;24.47;15.90;;;;;;;12.01;91.10;100874.69;4989156;28;20225;-76
2021/04/20 09:53:04;;;;;;;21.77;15.03;;;;;;;11.96;94.08;100862.66;4984515;28;20833;-74
2021/04/20 09:55:58;;;;;;;17.37;13.93;;;;;;;11.91;92.50;100863.66;4989734;28;20199;-75
2021/04/20 09:58:39;;;;;;;18.80;13.97;;;;;;;11.83;91.21;100870.78;4988010;28;20203;-74
2021/04/20 10:01:41;;;;;;;20.37;14.93;;;;;;;11.92;91.99;100857.53;4989243;28;20199;-75
2021/04/20 10:04:52;;;;;;;20.87;15.67;;;;;;;11.91;91.83;100861.03;4989397;28;20274;-75
2021/04/20 10:07:40;;;;;;;20.87;15.13;;;;;;;11.98;92.23;100864.34;4980454;28;20198;-75
2021/04/20 10:10:16;;;;;;;22.87;16.67;;;;;;;12.06;90.85;100864.97;4989154;28;20227;-74
2021/04/20 10:13:16;;;;;;;21.90;15.63;;;;;;;11.97;90.38;100864.38;4986369;28;20268;-73
2021/04/20 10:16:06;;;;;;;21.93;15.07;;;;;;;11.88;90.80;100857.63;4983300;28;20768;-76
2021/04/20 10:18:47;;;;;;;22.43;15.50;;;;;;;12.01;90.77;100864.22;4988666;28;20630;-73
2021/04/20 10:21:37;;;;;;;24.43;16.67;;;;;;;12.19;92.38;100849.81;4983341;28;20692;-75
2021/04/20 10:24:25;;;;;;;20.27;15.47;;;;;;;12.17;89.76;100859.44;4984467;28;20272;-75
2021/04/20 10:27:13;;;;;;;22.33;15.47;;;;;;;12.29;91.19;100851.25;4987695;28;20582;-76
2021/04/20 10:30:03;;;;;;;22.67;15.97;;;;;;;12.40;90.28;100857.88;4983922;28;20243;-74
2021/04/20 10:32:52;;;;;;;20.70;14.30;;;;;;;12.34;89.35;100852.84;4987678;28;20229;-76
2021/04/20 10:35:37;;;;;;;20.03;14.67;;;;;;;12.46;89.09;100857.72;4988859;28;20553;-73
2021/04/20 10:38:30;;;;;;;19.87;14.43;;;;;;;12.45;87.04;100859.50;4989916;28;20214;-74
2021/04/20 10:41:24;;;;;;;19.63;14.00;;;;;;;12.61;90.94;100845.91;4985998;28;20568;-74
2021/04/20 10:44:10;;;;;;;22.10;14.40;;;;;;;12.61;86.42;100854.66;4985284;28;20284;-73
2021/04/20 10:46:58;;;;;;;21.43;14.37;;;;;;;12.75;86.81;100848.09;4988702;28;20210;-73
2021/04/20 10:49:50;;;;;;;19.63;13.90;;;;;;;12.78;86.40;100845.41;4988273;28;20236;-74
2021/04/20 10:52:39;;;;;;;18.67;13.97;;;;;;;12.93;87.76;100841.41;4985676;28;20347;-75
2021/04/20 10:55:27;;;;;;;18.10;12.83;;;;;;;12.88;83.88;100845.06;4986745;28;20209;-74
2021/04/20 10:58:20;;;;;;;19.13;13.27;;;;;;;12.95;84.46;100847.50;4983613;28;20868;-73
2021/04/20 11:00:49;;;;;;;17.23;12.80;;;;;;;13.14;87.00;100832.00;4986646;28;20203;-73
2021/04/20 11:03:29;;;;;;;17.43;13.13;;;;;;;13.24;83.91;100829.06;4988308;28;20217;-76
2021/04/20 11:06:34;;;;;;;18.23;12.33;;;;;;;13.22;82.36;100825.59;4983961;28;20275;-74
2021/04/20 11:09:10;;;;;;;18.23;13.27;;;;;;;13.31;83.23;100831.44;4988516;28;20194;-73
2021/04/20 11:11:47;;;;;;;16.63;12.80;;;;;;;13.32;82.55;100822.72;4987998;28;20211;-73
2021/04/20 11:14:37;;;;;;;15.77;12.27;;;;;;;13.31;82.62;100818.34;4988231;28;20796;-73
2021/04/20 11:17:27;;;;;;;16.43;12.37;;;;;;;13.44;81.27;100814.44;4987836;28;20769;-74
2021/04/20 11:20:12;;;;;;;16.53;12.50;;;;;;;13.69;84.06;100810.97;4982041;28;20566;-73
2021/04/20 11:23:11;;;;;;;18.87;14.30;;;;;;;13.73;82.52;100813.38;4987117;28;20783;-74
2021/04/20 11:26:04;;;;;;;20.37;14.07;;;;;;;13.77;82.18;100807.16;4992109;28;20205;-74
2021/04/20 11:28:53;;;;;;;22.17;15.23;;;;;;;13.92;83.72;100807.50;5006843;28;20233;-75
2021/04/20 11:31:30;;;;;;;19.97;13.60;;;;;;;14.06;81.62;100801.72;4987968;28;20193;-75
2021/04/20 11:34:13;;;;;;;19.00;14.70;;;;;;;14.19;82.88;100798.59;4982538;28;20241;-73
2021/04/20 11:37:04;;;;;;;17.87;14.50;;;;;;;14.17;78.96;100810.03;4991476;28;20622;-74
2021/04/20 11:39:44;;;;;;;15.37;11.33;;;;;;;14.14;76.46;100808.41;4987915;28;20196;-73
2021/04/20 11:42:27;;;;;;;15.67;11.67;;;;;;;14.34;78.18;100807.63;4986399;28;20320;-75
2021/04/20 11:45:12;;;;;;;17.60;14.47;;;;;;;14.32;79.51;100793.72;4983492;28;20498;-72
2021/04/20 11:48:03;;;;;;;15.27;12.77;;;;;;;14.44;77.18;100800.25;4987405;28;20291;-74
2021/04/20 11:50:52;;;;;;;16.23;11.73;;;;;;;14.36;72.72;100802.31;4986690;28;20574;-72
2021/04/20 11:53:39;;;;;;;19.20;13.30;;;;;;;14.38;75.49;100796.09;4984276;28;20237;-75
2021/04/20 11:56:25;;;;;;;18.53;13.97;;;;;;;14.28;75.62;100789.50;4984518;28;20193;-76
2021/04/20 11:58:56;;;;;;;19.43;14.63;;;;;;;14.49;77.28;100785.19;4986967;28;20193;-75
2021/04/20 12:01:46;;;;;;;17.50;14.80;;;;;;;14.37;75.43;100789.16;4992880;28;20232;-73
2021/04/20 12:04:35;;;;;;;21.10;14.47;;;;;;;14.48;75.92;100785.25;4986695;28;20305;-73
2021/04/20 12:07:25;;;;;;;16.93;14.17;;;;;;;14.54;75.82;100785.84;4986661;28;20742;-73
2021/04/20 12:10:00;;;;;;;18.37;14.73;;;;;;;14.44;73.38;100786.25;4972253;28;20197;-74
2021/04/20 12:12:36;;;;;;;16.23;13.60;;;;;;;14.58;73.70;100786.59;4986995;28;20702;-73
2021/04/20 12:15:17;;;;;;;16.63;13.37;;;;;;;14.64;74.61;100786.38;4986389;28;20216;-73
2021/04/20 12:18:08;;;;;;;17.40;13.07;;;;;;;14.71;75.09;100782.56;4982867;28;20233;-75